sensor_id;sensor_type;location;lat;lon;timestamp;temperature;humidity
46488;DHT22;32202;48.780;9.204;2022-08-05T00:00:04;26.90;60.60
46488;DHT22;32202;48.780;9.204;2022-08-05T00:02:30;26.80;60.60
46488;DHT22;32202;48.780;9.204;2022-08-05T00:04:55;26.70;60.80
46488;DHT22;32202;48.780;9.204;2022-08-05T00:07:22;26.70;60.70
46488;DHT22;32202;48.780;9.204;2022-08-05T00:09:47;26.60;60.80
46488;DHT22;32202;48.780;9.204;2022-08-05T00:12:13;26.60;61.00
46488;DHT22;32202;48.780;9.204;2022-08-05T00:14:38;26.60;61.90
46488;DHT22;32202;48.780;9.204;2022-08-05T00:17:04;26.60;61.50
46488;DHT22;32202;48.780;9.204;2022-08-05T00:19:30;26.60;61.60
46488;DHT22;32202;48.780;9.204;2022-08-05T00:21:55;26.50;61.30
46488;DHT22;32202;48.780;9.204;2022-08-05T00:24:21;26.50;61.40
46488;DHT22;32202;48.780;9.204;2022-08-05T00:26:47;26.50;61.40
46488;DHT22;32202;48.780;9.204;2022-08-05T00:29:12;26.40;61.30
46488;DHT22;32202;48.780;9.204;2022-08-05T00:31:38;26.40;61.50
46488;DHT22;32202;48.780;9.204;2022-08-05T00:34:03;26.40;61.40
46488;DHT22;32202;48.780;9.204;2022-08-05T00:36:29;26.40;61.60
46488;DHT22;32202;48.780;9.204;2022-08-05T00:38:55;26.30;61.80
46488;DHT22;32202;48.780;9.204;2022-08-05T00:41:31;26.30;62.00
46488;DHT22;32202;48.780;9.204;2022-08-05T00:43:57;26.30;62.20
46488;DHT22;32202;48.780;9.204;2022-08-05T00:46:23;26.20;62.20
46488;DHT22;32202;48.780;9.204;2022-08-05T00:48:49;26.20;62.40
46488;DHT22;32202;48.780;9.204;2022-08-05T00:51:16;26.20;61.40
46488;DHT22;32202;48.780;9.204;2022-08-05T00:53:41;26.10;61.50
46488;DHT22;32202;48.780;9.204;2022-08-05T00:56:07;26.10;61.30
46488;DHT22;32202;48.780;9.204;2022-08-05T00:58:33;26.10;61.40
46488;DHT22;32202;48.780;9.204;2022-08-05T01:00:58;26.00;61.70
46488;DHT22;32202;48.780;9.204;2022-08-05T01:03:24;26.00;61.10
46488;DHT22;32202;48.780;9.204;2022-08-05T01:05:53;25.90;61.20
46488;DHT22;32202;48.780;9.204;2022-08-05T01:08:18;26.00;60.70
46488;DHT22;32202;48.780;9.204;2022-08-05T01:11:10;26.00;58.70
46488;DHT22;32202;48.780;9.204;2022-08-05T01:18:57;26.10;54.50
46488;DHT22;32202;48.780;9.204;2022-08-05T01:21:43;26.10;54.40
46488;DHT22;32202;48.780;9.204;2022-08-05T01:29:49;26.10;55.70
46488;DHT22;32202;48.780;9.204;2022-08-05T01:32:20;26.00;56.10
46488;DHT22;32202;48.780;9.204;2022-08-05T01:34:49;26.00;56.80
46488;DHT22;32202;48.780;9.204;2022-08-05T01:37:23;26.00;57.20
46488;DHT22;32202;48.780;9.204;2022-08-05T01:39:51;26.00;57.70
46488;DHT22;32202;48.780;9.204;2022-08-05T01:42:20;25.90;58.00
46488;DHT22;32202;48.780;9.204;2022-08-05T01:44:48;25.80;58.40
46488;DHT22;32202;48.780;9.204;2022-08-05T01:47:18;25.80;59.00
46488;DHT22;32202;48.780;9.204;2022-08-05T01:49:47;25.80;59.20
46488;DHT22;32202;48.780;9.204;2022-08-05T01:52:15;25.70;59.60
46488;DHT22;32202;48.780;9.204;2022-08-05T01:54:48;25.70;60.00
46488;DHT22;32202;48.780;9.204;2022-08-05T01:57:19;25.60;60.20
46488;DHT22;32202;48.780;9.204;2022-08-05T01:59:50;25.60;60.60
46488;DHT22;32202;48.780;9.204;2022-08-05T02:02:19;25.60;61.00
46488;DHT22;32202;48.780;9.204;2022-08-05T02:04:46;25.50;61.30
46488;DHT22;32202;48.780;9.204;2022-08-05T02:07:13;25.50;61.50
46488;DHT22;32202;48.780;9.204;2022-08-05T02:09:41;25.50;61.70
46488;DHT22;32202;48.780;9.204;2022-08-05T02:15:05;25.50;62.20
46488;DHT22;32202;48.780;9.204;2022-08-05T02:17:37;25.50;62.30
46488;DHT22;32202;48.780;9.204;2022-08-05T02:20:07;25.50;62.40
46488;DHT22;32202;48.780;9.204;2022-08-05T02:22:39;25.40;62.60
46488;DHT22;32202;48.780;9.204;2022-08-05T02:25:16;25.40;62.80
46488;DHT22;32202;48.780;9.204;2022-08-05T02:27:43;25.40;63.00
46488;DHT22;32202;48.780;9.204;2022-08-05T02:30:14;25.40;63.20
46488;DHT22;32202;48.780;9.204;2022-08-05T02:32:41;25.40;63.20
46488;DHT22;32202;48.780;9.204;2022-08-05T02:35:11;25.30;63.40
46488;DHT22;32202;48.780;9.204;2022-08-05T02:37:38;25.30;63.50
46488;DHT22;32202;48.780;9.204;2022-08-05T02:40:06;25.40;63.70
46488;DHT22;32202;48.780;9.204;2022-08-05T02:42:34;25.30;63.80
46488;DHT22;32202;48.780;9.204;2022-08-05T02:45:00;25.30;63.80
46488;DHT22;32202;48.780;9.204;2022-08-05T02:47:30;25.30;64.00
46488;DHT22;32202;48.780;9.204;2022-08-05T02:49:56;25.30;64.10
46488;DHT22;32202;48.780;9.204;2022-08-05T02:52:22;25.20;64.30
46488;DHT22;32202;48.780;9.204;2022-08-05T02:54:50;25.20;64.40
46488;DHT22;32202;48.780;9.204;2022-08-05T02:57:17;25.20;64.60
46488;DHT22;32202;48.780;9.204;2022-08-05T02:59:47;25.20;64.70
46488;DHT22;32202;48.780;9.204;2022-08-05T03:02:18;25.20;64.90
46488;DHT22;32202;48.780;9.204;2022-08-05T03:04:44;25.20;65.00
46488;DHT22;32202;48.780;9.204;2022-08-05T03:07:12;25.20;65.00
46488;DHT22;32202;48.780;9.204;2022-08-05T03:09:40;25.20;65.20
46488;DHT22;32202;48.780;9.204;2022-08-05T03:12:07;25.20;65.30
46488;DHT22;32202;48.780;9.204;2022-08-05T03:14:32;25.10;65.30
46488;DHT22;32202;48.780;9.204;2022-08-05T03:16:59;25.10;65.50
46488;DHT22;32202;48.780;9.204;2022-08-05T03:19:25;25.20;65.60
46488;DHT22;32202;48.780;9.204;2022-08-05T03:21:50;25.10;65.70
46488;DHT22;32202;48.780;9.204;2022-08-05T03:24:17;25.10;65.80
46488;DHT22;32202;48.780;9.204;2022-08-05T03:26:44;25.10;65.80
46488;DHT22;32202;48.780;9.204;2022-08-05T03:29:10;25.10;65.90
46488;DHT22;32202;48.780;9.204;2022-08-05T03:31:35;25.10;66.00
46488;DHT22;32202;48.780;9.204;2022-08-05T03:34:02;25.10;66.10
46488;DHT22;32202;48.780;9.204;2022-08-05T03:36:28;25.00;66.30
46488;DHT22;32202;48.780;9.204;2022-08-05T03:38:53;25.00;66.20
46488;DHT22;32202;48.780;9.204;2022-08-05T03:41:19;25.00;66.50
46488;DHT22;32202;48.780;9.204;2022-08-05T03:43:45;25.00;66.70
46488;DHT22;32202;48.780;9.204;2022-08-05T03:46:10;24.90;66.80
46488;DHT22;32202;48.780;9.204;2022-08-05T03:48:36;24.90;67.70
46488;DHT22;32202;48.780;9.204;2022-08-05T03:51:12;24.80;67.20
46488;DHT22;32202;48.780;9.204;2022-08-05T03:53:43;24.80;67.50
46488;DHT22;32202;48.780;9.204;2022-08-05T03:56:24;24.80;67.60
46488;DHT22;32202;48.780;9.204;2022-08-05T03:58:52;24.70;67.70
46488;DHT22;32202;48.780;9.204;2022-08-05T04:01:20;24.70;68.20
46488;DHT22;32202;48.780;9.204;2022-08-05T04:03:49;24.60;68.40
46488;DHT22;32202;48.780;9.204;2022-08-05T04:06:15;24.60;68.80
46488;DHT22;32202;48.780;9.204;2022-08-05T04:08:42;24.60;69.00
46488;DHT22;32202;48.780;9.204;2022-08-05T04:11:08;24.50;69.10
46488;DHT22;32202;48.780;9.204;2022-08-05T04:13:35;24.50;69.40
46488;DHT22;32202;48.780;9.204;2022-08-05T04:16:03;24.50;69.50
46488;DHT22;32202;48.780;9.204;2022-08-05T04:18:29;24.50;69.50
46488;DHT22;32202;48.780;9.204;2022-08-05T04:20:55;24.50;69.70
46488;DHT22;32202;48.780;9.204;2022-08-05T04:23:25;24.50;70.00
46488;DHT22;32202;48.780;9.204;2022-08-05T04:25:52;24.50;69.90
46488;DHT22;32202;48.780;9.204;2022-08-05T04:28:19;24.50;70.30
46488;DHT22;32202;48.780;9.204;2022-08-05T04:30:45;24.30;70.90
46488;DHT22;32202;48.780;9.204;2022-08-05T04:33:11;24.30;71.10
46488;DHT22;32202;48.780;9.204;2022-08-05T04:35:37;24.30;71.30
46488;DHT22;32202;48.780;9.204;2022-08-05T04:38:02;24.30;71.20
46488;DHT22;32202;48.780;9.204;2022-08-05T04:40:28;24.40;71.20
46488;DHT22;32202;48.780;9.204;2022-08-05T04:42:57;24.40;71.00
46488;DHT22;32202;48.780;9.204;2022-08-05T04:45:22;24.50;71.40
46488;DHT22;32202;48.780;9.204;2022-08-05T04:47:49;24.50;70.90
46488;DHT22;32202;48.780;9.204;2022-08-05T04:50:15;24.60;70.80
46488;DHT22;32202;48.780;9.204;2022-08-05T04:52:42;24.60;70.80
46488;DHT22;32202;48.780;9.204;2022-08-05T04:55:08;24.60;70.70
46488;DHT22;32202;48.780;9.204;2022-08-05T04:57:33;24.50;70.70
46488;DHT22;32202;48.780;9.204;2022-08-05T05:00:00;24.50;70.70
46488;DHT22;32202;48.780;9.204;2022-08-05T05:02:26;24.50;70.60
46488;DHT22;32202;48.780;9.204;2022-08-05T05:04:51;24.60;70.50
46488;DHT22;32202;48.780;9.204;2022-08-05T05:07:17;24.60;70.60
46488;DHT22;32202;48.780;9.204;2022-08-05T05:09:44;24.60;70.70
46488;DHT22;32202;48.780;9.204;2022-08-05T05:12:09;24.70;70.70
46488;DHT22;32202;48.780;9.204;2022-08-05T05:14:35;24.70;70.50
46488;DHT22;32202;48.780;9.204;2022-08-05T05:17:01;24.70;70.20
46488;DHT22;32202;48.780;9.204;2022-08-05T05:19:27;24.80;70.00
46488;DHT22;32202;48.780;9.204;2022-08-05T05:21:52;25.00;69.60
46488;DHT22;32202;48.780;9.204;2022-08-05T05:24:18;25.20;69.20
46488;DHT22;32202;48.780;9.204;2022-08-05T05:26:46;25.30;68.70
46488;DHT22;32202;48.780;9.204;2022-08-05T05:29:12;25.40;68.20
46488;DHT22;32202;48.780;9.204;2022-08-05T05:31:37;25.60;67.90
46488;DHT22;32202;48.780;9.204;2022-08-05T05:34:03;25.80;67.60
46488;DHT22;32202;48.780;9.204;2022-08-05T05:36:30;26.10;66.60
46488;DHT22;32202;48.780;9.204;2022-08-05T05:38:56;26.70;65.20
46488;DHT22;32202;48.780;9.204;2022-08-05T05:41:22;27.30;63.10
46488;DHT22;32202;48.780;9.204;2022-08-05T05:43:47;28.10;61.20
46488;DHT22;32202;48.780;9.204;2022-08-05T05:46:13;28.80;59.10
46488;DHT22;32202;48.780;9.204;2022-08-05T05:48:38;29.60;57.20
46488;DHT22;32202;48.780;9.204;2022-08-05T05:51:06;30.30;55.30
46488;DHT22;32202;48.780;9.204;2022-08-05T05:53:32;30.80;53.90
46488;DHT22;32202;48.780;9.204;2022-08-05T05:55:58;31.50;52.80
46488;DHT22;32202;48.780;9.204;2022-08-05T05:58:24;32.30;51.30
46488;DHT22;32202;48.780;9.204;2022-08-05T06:00:49;32.90;49.90
46488;DHT22;32202;48.780;9.204;2022-08-05T06:03:15;33.30;49.00
46488;DHT22;32202;48.780;9.204;2022-08-05T06:05:40;33.80;47.90
46488;DHT22;32202;48.780;9.204;2022-08-05T06:08:06;34.10;47.30
46488;DHT22;32202;48.780;9.204;2022-08-05T06:10:31;34.70;46.60
46488;DHT22;32202;48.780;9.204;2022-08-05T06:12:58;35.20;45.20
46488;DHT22;32202;48.780;9.204;2022-08-05T06:15:24;35.80;44.40
46488;DHT22;32202;48.780;9.204;2022-08-05T06:17:49;36.40;43.50
46488;DHT22;32202;48.780;9.204;2022-08-05T06:20:15;37.00;42.50
46488;DHT22;32202;48.780;9.204;2022-08-05T06:22:40;36.70;42.70
46488;DHT22;32202;48.780;9.204;2022-08-05T06:25:06;35.70;43.70
46488;DHT22;32202;48.780;9.204;2022-08-05T06:27:33;35.50;43.90
46488;DHT22;32202;48.780;9.204;2022-08-05T06:29:59;36.00;43.30
46488;DHT22;32202;48.780;9.204;2022-08-05T06:32:24;36.70;42.30
46488;DHT22;32202;48.780;9.204;2022-08-05T06:34:50;37.40;41.60
46488;DHT22;32202;48.780;9.204;2022-08-05T06:37:18;38.30;40.90
46488;DHT22;32202;48.780;9.204;2022-08-05T06:39:44;39.10;39.90
46488;DHT22;32202;48.780;9.204;2022-08-05T06:42:09;39.90;39.20
46488;DHT22;32202;48.780;9.204;2022-08-05T06:44:35;40.30;38.60
46488;DHT22;32202;48.780;9.204;2022-08-05T06:47:01;40.70;38.20
46488;DHT22;32202;48.780;9.204;2022-08-05T06:49:26;41.00;37.80
46488;DHT22;32202;48.780;9.204;2022-08-05T06:51:52;41.40;37.30
46488;DHT22;32202;48.780;9.204;2022-08-05T06:54:17;41.70;37.00
46488;DHT22;32202;48.780;9.204;2022-08-05T06:56:43;42.10;36.50
46488;DHT22;32202;48.780;9.204;2022-08-05T06:59:09;42.40;36.10
46488;DHT22;32202;48.780;9.204;2022-08-05T07:01:38;42.70;36.10
46488;DHT22;32202;48.780;9.204;2022-08-05T07:04:04;43.20;35.50
46488;DHT22;32202;48.780;9.204;2022-08-05T07:06:30;43.00;35.60
46488;DHT22;32202;48.780;9.204;2022-08-05T07:08:55;41.70;36.30
46488;DHT22;32202;48.780;9.204;2022-08-05T07:11:22;40.90;36.90
46488;DHT22;32202;48.780;9.204;2022-08-05T07:13:48;40.70;37.90
46488;DHT22;32202;48.780;9.204;2022-08-05T07:16:32;39.90;37.90
46488;DHT22;32202;48.780;9.204;2022-08-05T07:19:18;39.50;38.30
46488;DHT22;32202;48.780;9.204;2022-08-05T07:21:48;40.40;37.60
46488;DHT22;32202;48.780;9.204;2022-08-05T07:24:14;41.30;36.90
46488;DHT22;32202;48.780;9.204;2022-08-05T07:26:41;42.10;36.10
46488;DHT22;32202;48.780;9.204;2022-08-05T07:29:07;42.80;35.40
46488;DHT22;32202;48.780;9.204;2022-08-05T07:31:33;43.30;35.10
46488;DHT22;32202;48.780;9.204;2022-08-05T07:33:59;43.70;34.70
46488;DHT22;32202;48.780;9.204;2022-08-05T07:36:25;44.40;34.30
46488;DHT22;32202;48.780;9.204;2022-08-05T07:38:50;44.90;34.10
46488;DHT22;32202;48.780;9.204;2022-08-05T07:41:18;45.50;33.40
46488;DHT22;32202;48.780;9.204;2022-08-05T07:43:43;46.00;33.20
46488;DHT22;32202;48.780;9.204;2022-08-05T07:46:09;46.10;32.80
46488;DHT22;32202;48.780;9.204;2022-08-05T07:48:35;46.10;32.90
46488;DHT22;32202;48.780;9.204;2022-08-05T07:51:00;46.40;32.80
46488;DHT22;32202;48.780;9.204;2022-08-05T07:53:26;46.90;32.40
46488;DHT22;32202;48.780;9.204;2022-08-05T07:55:52;47.30;32.00
46488;DHT22;32202;48.780;9.204;2022-08-05T07:58:18;47.40;31.90
46488;DHT22;32202;48.780;9.204;2022-08-05T08:00:44;47.10;32.00
46488;DHT22;32202;48.780;9.204;2022-08-05T08:03:10;47.30;31.90
46488;DHT22;32202;48.780;9.204;2022-08-05T08:05:42;47.50;31.70
46488;DHT22;32202;48.780;9.204;2022-08-05T08:08:11;47.70;30.80
46488;DHT22;32202;48.780;9.204;2022-08-05T08:10:37;47.70;30.70
46488;DHT22;32202;48.780;9.204;2022-08-05T08:13:03;47.60;30.80
46488;DHT22;32202;48.780;9.204;2022-08-05T08:15:28;48.00;30.30
46488;DHT22;32202;48.780;9.204;2022-08-05T08:17:54;48.30;30.10
46488;DHT22;32202;48.780;9.204;2022-08-05T08:20:21;48.80;30.00
46488;DHT22;32202;48.780;9.204;2022-08-05T08:22:54;49.00;29.80
46488;DHT22;32202;48.780;9.204;2022-08-05T08:25:21;48.90;29.90
46488;DHT22;32202;48.780;9.204;2022-08-05T08:27:46;49.60;29.50
46488;DHT22;32202;48.780;9.204;2022-08-05T08:30:13;49.70;29.30
46488;DHT22;32202;48.780;9.204;2022-08-05T08:32:38;49.60;29.30
46488;DHT22;32202;48.780;9.204;2022-08-05T08:35:05;49.40;29.30
46488;DHT22;32202;48.780;9.204;2022-08-05T08:37:32;49.40;29.50
46488;DHT22;32202;48.780;9.204;2022-08-05T08:39:57;49.80;29.30
46488;DHT22;32202;48.780;9.204;2022-08-05T08:42:23;50.10;29.20
46488;DHT22;32202;48.780;9.204;2022-08-05T08:44:53;49.90;29.20
46488;DHT22;32202;48.780;9.204;2022-08-05T08:47:22;49.80;29.30
46488;DHT22;32202;48.780;9.204;2022-08-05T08:49:54;49.90;29.30
46488;DHT22;32202;48.780;9.204;2022-08-05T08:52:30;50.40;29.20
46488;DHT22;32202;48.780;9.204;2022-08-05T08:54:56;51.30;28.90
46488;DHT22;32202;48.780;9.204;2022-08-05T08:57:23;52.00;28.70
46488;DHT22;32202;48.780;9.204;2022-08-05T08:59:49;52.40;28.50
46488;DHT22;32202;48.780;9.204;2022-08-05T09:02:20;52.40;28.40
46488;DHT22;32202;48.780;9.204;2022-08-05T09:04:46;52.80;28.40
46488;DHT22;32202;48.780;9.204;2022-08-05T09:07:12;53.30;28.10
46488;DHT22;32202;48.780;9.204;2022-08-05T09:09:38;53.40;28.10
46488;DHT22;32202;48.780;9.204;2022-08-05T09:12:07;53.70;28.00
46488;DHT22;32202;48.780;9.204;2022-08-05T09:14:36;54.00;27.80
46488;DHT22;32202;48.780;9.204;2022-08-05T09:17:09;54.10;27.60
46488;DHT22;32202;48.780;9.204;2022-08-05T09:19:37;54.30;27.60
46488;DHT22;32202;48.780;9.204;2022-08-05T09:22:03;54.60;27.60
46488;DHT22;32202;48.780;9.204;2022-08-05T09:24:28;55.20;27.50
46488;DHT22;32202;48.780;9.204;2022-08-05T09:26:57;55.20;27.20
46488;DHT22;32202;48.780;9.204;2022-08-05T09:29:41;55.40;27.20
46488;DHT22;32202;48.780;9.204;2022-08-05T09:32:10;55.10;27.20
46488;DHT22;32202;48.780;9.204;2022-08-05T09:34:48;55.10;27.40
46488;DHT22;32202;48.780;9.204;2022-08-05T09:37:19;55.60;27.10
46488;DHT22;32202;48.780;9.204;2022-08-05T09:39:44;55.70;27.20
46488;DHT22;32202;48.780;9.204;2022-08-05T09:42:18;55.70;27.10
46488;DHT22;32202;48.780;9.204;2022-08-05T09:44:47;55.50;27.40
46488;DHT22;32202;48.780;9.204;2022-08-05T09:49:46;54.90;27.30
46488;DHT22;32202;48.780;9.204;2022-08-05T09:52:32;52.80;27.70
46488;DHT22;32202;48.780;9.204;2022-08-05T09:57:43;52.30;28.10
46488;DHT22;32202;48.780;9.204;2022-08-05T10:00:15;52.60;27.90
46488;DHT22;32202;48.780;9.204;2022-08-05T10:02:43;53.20;27.90
46488;DHT22;32202;48.780;9.204;2022-08-05T10:05:18;54.10;27.80
46488;DHT22;32202;48.780;9.204;2022-08-05T10:07:50;53.90;27.50
46488;DHT22;32202;48.780;9.204;2022-08-05T10:10:18;53.20;27.80
46488;DHT22;32202;48.780;9.204;2022-08-05T10:12:47;53.90;27.50
46488;DHT22;32202;48.780;9.204;2022-08-05T10:17:39;53.20;27.60
46488;DHT22;32202;48.780;9.204;2022-08-05T10:20:06;53.90;27.60
46488;DHT22;32202;48.780;9.204;2022-08-05T10:22:31;52.10;27.60
46488;DHT22;32202;48.780;9.204;2022-08-05T10:24:57;52.20;27.90
46488;DHT22;32202;48.780;9.204;2022-08-05T10:27:23;51.80;28.00
46488;DHT22;32202;48.780;9.204;2022-08-05T10:29:49;53.10;27.90
46488;DHT22;32202;48.780;9.204;2022-08-05T10:32:15;54.10;27.50
46488;DHT22;32202;48.780;9.204;2022-08-05T10:34:40;54.50;27.50
46488;DHT22;32202;48.780;9.204;2022-08-05T10:37:06;55.20;27.40
46488;DHT22;32202;48.780;9.204;2022-08-05T10:39:34;55.60;27.10
46488;DHT22;32202;48.780;9.204;2022-08-05T10:42:23;55.80;26.90
46488;DHT22;32202;48.780;9.204;2022-08-05T10:44:50;55.60;26.80
46488;DHT22;32202;48.780;9.204;2022-08-05T10:47:18;52.20;27.30
46488;DHT22;32202;48.780;9.204;2022-08-05T10:50:06;52.70;27.60
46488;DHT22;32202;48.780;9.204;2022-08-05T10:52:41;53.30;27.60
46488;DHT22;32202;48.780;9.204;2022-08-05T10:55:12;54.60;27.10
46488;DHT22;32202;48.780;9.204;2022-08-05T10:57:39;54.90;27.00
46488;DHT22;32202;48.780;9.204;2022-08-05T11:02:36;55.50;27.00
46488;DHT22;32202;48.780;9.204;2022-08-05T11:05:04;56.20;26.90
46488;DHT22;32202;48.780;9.204;2022-08-05T11:07:30;56.80;26.80
46488;DHT22;32202;48.780;9.204;2022-08-05T11:09:57;57.10;26.70
46488;DHT22;32202;48.780;9.204;2022-08-05T11:17:41;58.00;26.60
46488;DHT22;32202;48.780;9.204;2022-08-05T11:20:31;58.00;26.50
46488;DHT22;32202;48.780;9.204;2022-08-05T11:22:58;58.00;26.50
46488;DHT22;32202;48.780;9.204;2022-08-05T11:25:36;57.80;26.70
46488;DHT22;32202;48.780;9.204;2022-08-05T11:33:34;57.80;26.60
46488;DHT22;32202;48.780;9.204;2022-08-05T11:41:03;58.40;26.40
46488;DHT22;32202;48.780;9.204;2022-08-05T11:43:30;58.10;26.40
46488;DHT22;32202;48.780;9.204;2022-08-05T11:45:56;56.30;26.60
46488;DHT22;32202;48.780;9.204;2022-08-05T11:48:22;53.90;27.10
46488;DHT22;32202;48.780;9.204;2022-08-05T11:50:49;51.90;27.60
46488;DHT22;32202;48.780;9.204;2022-08-05T11:53:15;50.70;28.20
46488;DHT22;32202;48.780;9.204;2022-08-05T11:55:58;50.10;28.40
46488;DHT22;32202;48.780;9.204;2022-08-05T11:58:32;49.30;28.70
46488;DHT22;32202;48.780;9.204;2022-08-05T12:01:03;48.20;29.00
46488;DHT22;32202;48.780;9.204;2022-08-05T12:03:43;46.40;29.50
46488;DHT22;32202;48.780;9.204;2022-08-05T12:06:10;44.90;30.00
46488;DHT22;32202;48.780;9.204;2022-08-05T12:08:44;43.70;30.50
46488;DHT22;32202;48.780;9.204;2022-08-05T12:11:12;43.30;31.10
46488;DHT22;32202;48.780;9.204;2022-08-05T12:13:52;43.70;30.80
46488;DHT22;32202;48.780;9.204;2022-08-05T12:16:19;44.60;30.70
46488;DHT22;32202;48.780;9.204;2022-08-05T12:18:45;45.70;30.10
46488;DHT22;32202;48.780;9.204;2022-08-05T12:21:18;47.40;29.70
46488;DHT22;32202;48.780;9.204;2022-08-05T12:26:22;48.60;29.00
46488;DHT22;32202;48.780;9.204;2022-08-05T12:28:48;49.20;29.00
46488;DHT22;32202;48.780;9.204;2022-08-05T12:31:13;48.50;29.20
46488;DHT22;32202;48.780;9.204;2022-08-05T12:33:41;46.40;29.80
46488;DHT22;32202;48.780;9.204;2022-08-05T12:36:07;44.10;30.90
46488;DHT22;32202;48.780;9.204;2022-08-05T12:38:36;43.10;31.70
46488;DHT22;32202;48.780;9.204;2022-08-05T12:41:02;42.10;32.40
46488;DHT22;32202;48.780;9.204;2022-08-05T12:43:28;41.60;32.90
46488;DHT22;32202;48.780;9.204;2022-08-05T12:45:54;40.90;33.50
46488;DHT22;32202;48.780;9.204;2022-08-05T12:48:21;40.30;33.80
46488;DHT22;32202;48.780;9.204;2022-08-05T12:53:44;39.10;34.80
46488;DHT22;32202;48.780;9.204;2022-08-05T12:56:22;38.60;35.40
46488;DHT22;32202;48.780;9.204;2022-08-05T13:01:41;38.30;35.50
46488;DHT22;32202;48.780;9.204;2022-08-05T13:04:07;38.30;35.70
46488;DHT22;32202;48.780;9.204;2022-08-05T13:06:39;38.20;35.60
46488;DHT22;32202;48.780;9.204;2022-08-05T13:09:07;38.10;35.70
46488;DHT22;32202;48.780;9.204;2022-08-05T13:11:33;38.00;35.80
46488;DHT22;32202;48.780;9.204;2022-08-05T13:14:02;38.00;35.80
46488;DHT22;32202;48.780;9.204;2022-08-05T13:16:27;38.00;36.00
46488;DHT22;32202;48.780;9.204;2022-08-05T13:18:55;38.00;36.50
46488;DHT22;32202;48.780;9.204;2022-08-05T13:21:21;37.90;35.90
46488;DHT22;32202;48.780;9.204;2022-08-05T13:23:46;38.00;36.00
46488;DHT22;32202;48.780;9.204;2022-08-05T13:26:12;38.80;35.60
46488;DHT22;32202;48.780;9.204;2022-08-05T13:28:37;39.30;35.10
46488;DHT22;32202;48.780;9.204;2022-08-05T13:31:03;39.50;34.60
46488;DHT22;32202;48.780;9.204;2022-08-05T13:33:29;39.50;34.60
46488;DHT22;32202;48.780;9.204;2022-08-05T13:35:54;39.40;34.70
46488;DHT22;32202;48.780;9.204;2022-08-05T13:38:20;39.20;34.90
46488;DHT22;32202;48.780;9.204;2022-08-05T13:40:46;38.90;35.00
46488;DHT22;32202;48.780;9.204;2022-08-05T13:43:11;38.70;35.50
46488;DHT22;32202;48.780;9.204;2022-08-05T13:45:38;38.60;35.40
46488;DHT22;32202;48.780;9.204;2022-08-05T13:48:03;38.60;35.40
46488;DHT22;32202;48.780;9.204;2022-08-05T13:50:29;38.80;35.40
46488;DHT22;32202;48.780;9.204;2022-08-05T13:52:55;38.70;35.30
46488;DHT22;32202;48.780;9.204;2022-08-05T13:55:20;38.60;35.50
46488;DHT22;32202;48.780;9.204;2022-08-05T13:57:46;38.50;35.40
46488;DHT22;32202;48.780;9.204;2022-08-05T14:00:12;38.60;35.30
46488;DHT22;32202;48.780;9.204;2022-08-05T14:02:37;38.50;35.40
46488;DHT22;32202;48.780;9.204;2022-08-05T14:05:03;38.40;35.60
46488;DHT22;32202;48.780;9.204;2022-08-05T14:07:37;38.40;35.60
46488;DHT22;32202;48.780;9.204;2022-08-05T14:10:07;38.30;35.70
46488;DHT22;32202;48.780;9.204;2022-08-05T14:12:33;38.20;35.60
46488;DHT22;32202;48.780;9.204;2022-08-05T14:14:59;38.10;35.90
46488;DHT22;32202;48.780;9.204;2022-08-05T14:17:24;38.10;35.80
46488;DHT22;32202;48.780;9.204;2022-08-05T14:19:52;38.20;35.70
46488;DHT22;32202;48.780;9.204;2022-08-05T14:22:18;38.00;35.80
46488;DHT22;32202;48.780;9.204;2022-08-05T14:24:44;37.80;36.10
46488;DHT22;32202;48.780;9.204;2022-08-05T14:27:09;37.60;36.30
46488;DHT22;32202;48.780;9.204;2022-08-05T14:29:35;37.30;36.60
46488;DHT22;32202;48.780;9.204;2022-08-05T14:32:01;36.90;37.00
46488;DHT22;32202;48.780;9.204;2022-08-05T14:34:26;36.40;37.40
46488;DHT22;32202;48.780;9.204;2022-08-05T14:36:52;36.00;38.10
46488;DHT22;32202;48.780;9.204;2022-08-05T14:39:17;35.60;38.50
46488;DHT22;32202;48.780;9.204;2022-08-05T14:41:43;35.20;38.90
46488;DHT22;32202;48.780;9.204;2022-08-05T14:44:08;34.90;39.40
46488;DHT22;32202;48.780;9.204;2022-08-05T14:46:34;34.70;39.60
46488;DHT22;32202;48.780;9.204;2022-08-05T14:49:01;34.40;39.90
46488;DHT22;32202;48.780;9.204;2022-08-05T14:51:28;34.20;40.30
46488;DHT22;32202;48.780;9.204;2022-08-05T14:53:53;34.00;40.60
46488;DHT22;32202;48.780;9.204;2022-08-05T14:56:19;33.80;41.10
46488;DHT22;32202;48.780;9.204;2022-08-05T14:58:45;33.70;41.70
46488;DHT22;32202;48.780;9.204;2022-08-05T15:01:10;33.50;42.10
46488;DHT22;32202;48.780;9.204;2022-08-05T15:03:36;33.40;42.40
46488;DHT22;32202;48.780;9.204;2022-08-05T15:06:02;33.20;42.80
46488;DHT22;32202;48.780;9.204;2022-08-05T15:08:28;33.00;43.10
46488;DHT22;32202;48.780;9.204;2022-08-05T15:10:54;33.00;43.50
46488;DHT22;32202;48.780;9.204;2022-08-05T15:13:20;33.00;44.00
46488;DHT22;32202;48.780;9.204;2022-08-05T15:15:45;32.90;44.80
46488;DHT22;32202;48.780;9.204;2022-08-05T15:18:11;32.90;45.00
46488;DHT22;32202;48.780;9.204;2022-08-05T15:20:36;33.00;46.30
46488;DHT22;32202;48.780;9.204;2022-08-05T15:23:04;33.20;50.00
46488;DHT22;32202;48.780;9.204;2022-08-05T15:25:30;33.50;54.10
46488;DHT22;32202;48.780;9.204;2022-08-05T15:27:55;33.50;52.90
46488;DHT22;32202;48.780;9.204;2022-08-05T15:30:21;33.40;56.40
46488;DHT22;32202;48.780;9.204;2022-08-05T15:32:47;33.10;56.00
46488;DHT22;32202;48.780;9.204;2022-08-05T15:35:12;32.90;56.00
46488;DHT22;32202;48.780;9.204;2022-08-05T15:37:38;32.50;57.10
46488;DHT22;32202;48.780;9.204;2022-08-05T15:40:04;32.30;59.40
46488;DHT22;32202;48.780;9.204;2022-08-05T15:42:30;32.20;61.50
46488;DHT22;32202;48.780;9.204;2022-08-05T15:44:57;32.00;62.20
46488;DHT22;32202;48.780;9.204;2022-08-05T15:47:23;32.00;63.00
46488;DHT22;32202;48.780;9.204;2022-08-05T15:49:48;31.90;58.40
46488;DHT22;32202;48.780;9.204;2022-08-05T15:52:18;31.70;60.20
46488;DHT22;32202;48.780;9.204;2022-08-05T15:54:44;31.70;60.00
46488;DHT22;32202;48.780;9.204;2022-08-05T15:57:10;31.60;57.80
46488;DHT22;32202;48.780;9.204;2022-08-05T15:59:35;31.60;57.50
46488;DHT22;32202;48.780;9.204;2022-08-05T16:02:01;31.50;57.30
46488;DHT22;32202;48.780;9.204;2022-08-05T16:04:27;31.40;57.10
46488;DHT22;32202;48.780;9.204;2022-08-05T16:06:53;31.30;57.00
46488;DHT22;32202;48.780;9.204;2022-08-05T16:09:19;31.20;57.00
46488;DHT22;32202;48.780;9.204;2022-08-05T16:11:45;31.20;55.60
46488;DHT22;32202;48.780;9.204;2022-08-05T16:14:11;31.10;55.50
46488;DHT22;32202;48.780;9.204;2022-08-05T16:16:37;31.10;55.60
46488;DHT22;32202;48.780;9.204;2022-08-05T16:19:03;31.10;55.20